sensor_id;sensor_type;location;lat;lon;timestamp;temperature;humidity
19999;DHT22;10160;50.926;4.374;2024-02-23T00:02:09;6.40;99.90
19999;DHT22;10160;50.926;4.374;2024-02-23T00:04:35;6.40;99.90
19999;DHT22;10160;50.926;4.374;2024-02-23T00:07:09;6.40;99.90
19999;DHT22;10160;50.926;4.374;2024-02-23T00:09:35;6.40;99.90
19999;DHT22;10160;50.926;4.374;2024-02-23T00:12:04;6.50;99.90
19999;DHT22;10160;50.926;4.374;2024-02-23T00:14:30;6.40;99.90
19999;DHT22;10160;50.926;4.374;2024-02-23T00:17:04;6.40;99.90
19999;DHT22;10160;50.926;4.374;2024-02-23T00:19:33;6.30;99.90
19999;DHT22;10160;50.926;4.374;2024-02-23T00:22:04;6.30;99.90
19999;DHT22;10160;50.926;4.374;2024-02-23T00:24:32;6.30;99.90
19999;DHT22;10160;50.926;4.374;2024-02-23T00:26:58;6.30;99.90
19999;DHT22;10160;50.926;4.374;2024-02-23T00:29:24;6.20;99.90
19999;DHT22;10160;50.926;4.374;2024-02-23T00:31:58;6.20;99.90
19999;DHT22;10160;50.926;4.374;2024-02-23T00:34:23;6.20;99.90
19999;DHT22;10160;50.926;4.374;2024-02-23T00:36:49;6.20;99.90
19999;DHT22;10160;50.926;4.374;2024-02-23T00:39:15;6.10;99.90
19999;DHT22;10160;50.926;4.374;2024-02-23T00:41:43;6.10;99.90
19999;DHT22;10160;50.926;4.374;2024-02-23T00:44:12;6.10;99.90
19999;DHT22;10160;50.926;4.374;2024-02-23T00:46:41;6.10;99.90
19999;DHT22;10160;50.926;4.374;2024-02-23T00:49:12;6.00;99.90
19999;DHT22;10160;50.926;4.374;2024-02-23T00:51:38;6.00;99.90
19999;DHT22;10160;50.926;4.374;2024-02-23T00:54:04;6.00;99.90
19999;DHT22;10160;50.926;4.374;2024-02-23T00:56:32;5.90;99.90
19999;DHT22;10160;50.926;4.374;2024-02-23T00:58:59;5.80;99.90
19999;DHT22;10160;50.926;4.374;2024-02-23T01:01:24;5.70;99.90
19999;DHT22;10160;50.926;4.374;2024-02-23T01:03:54;5.80;99.90
19999;DHT22;10160;50.926;4.374;2024-02-23T01:06:20;5.80;99.90
19999;DHT22;10160;50.926;4.374;2024-02-23T01:08:46;5.80;99.90
19999;DHT22;10160;50.926;4.374;2024-02-23T01:11:11;5.80;99.90
19999;DHT22;10160;50.926;4.374;2024-02-23T01:13:40;5.80;99.90
19999;DHT22;10160;50.926;4.374;2024-02-23T01:16:05;5.70;99.90
19999;DHT22;10160;50.926;4.374;2024-02-23T01:18:34;5.80;99.90
19999;DHT22;10160;50.926;4.374;2024-02-23T01:21:00;5.80;99.90
19999;DHT22;10160;50.926;4.374;2024-02-23T01:23:26;5.70;99.90
19999;DHT22;10160;50.926;4.374;2024-02-23T01:25:52;5.80;99.90
19999;DHT22;10160;50.926;4.374;2024-02-23T01:28:17;5.80;99.90
19999;DHT22;10160;50.926;4.374;2024-02-23T01:30:46;5.80;99.90
19999;DHT22;10160;50.926;4.374;2024-02-23T01:33:12;5.70;99.90
19999;DHT22;10160;50.926;4.374;2024-02-23T01:35:37;5.80;99.90
19999;DHT22;10160;50.926;4.374;2024-02-23T01:38:03;5.80;99.90
19999;DHT22;10160;50.926;4.374;2024-02-23T01:40:29;5.80;99.90
19999;DHT22;10160;50.926;4.374;2024-02-23T01:43:04;5.80;99.90
19999;DHT22;10160;50.926;4.374;2024-02-23T01:45:31;5.80;99.90
19999;DHT22;10160;50.926;4.374;2024-02-23T01:48:00;5.80;99.90
19999;DHT22;10160;50.926;4.374;2024-02-23T01:50:26;5.70;99.90
19999;DHT22;10160;50.926;4.374;2024-02-23T01:52:52;5.80;99.90
19999;DHT22;10160;50.926;4.374;2024-02-23T01:55:22;5.80;99.90
19999;DHT22;10160;50.926;4.374;2024-02-23T01:57:55;5.80;99.90
19999;DHT22;10160;50.926;4.374;2024-02-23T02:00:30;5.80;99.90
19999;DHT22;10160;50.926;4.374;2024-02-23T02:02:56;5.80;99.90
19999;DHT22;10160;50.926;4.374;2024-02-23T02:05:22;5.80;99.90
19999;DHT22;10160;50.926;4.374;2024-02-23T02:07:50;5.70;99.90
19999;DHT22;10160;50.926;4.374;2024-02-23T02:10:20;5.70;99.90
19999;DHT22;10160;50.926;4.374;2024-02-23T02:12:46;5.60;99.90
19999;DHT22;10160;50.926;4.374;2024-02-23T02:15:11;5.60;99.90
19999;DHT22;10160;50.926;4.374;2024-02-23T02:17:37;5.60;99.90
19999;DHT22;10160;50.926;4.374;2024-02-23T02:20:06;5.60;99.90
19999;DHT22;10160;50.926;4.374;2024-02-23T02:22:42;5.70;99.90
19999;DHT22;10160;50.926;4.374;2024-02-23T02:25:08;5.70;99.90
19999;DHT22;10160;50.926;4.374;2024-02-23T02:27:34;5.60;99.90
19999;DHT22;10160;50.926;4.374;2024-02-23T02:29:59;5.70;99.90
19999;DHT22;10160;50.926;4.374;2024-02-23T02:32:30;5.60;99.90
19999;DHT22;10160;50.926;4.374;2024-02-23T02:35:05;5.70;99.90
19999;DHT22;10160;50.926;4.374;2024-02-23T02:37:40;5.80;99.90
19999;DHT22;10160;50.926;4.374;2024-02-23T02:40:06;5.70;99.90
19999;DHT22;10160;50.926;4.374;2024-02-23T02:42:33;5.70;99.90
19999;DHT22;10160;50.926;4.374;2024-02-23T02:44:59;5.80;99.90
19999;DHT22;10160;50.926;4.374;2024-02-23T02:47:24;5.80;99.90
19999;DHT22;10160;50.926;4.374;2024-02-23T02:49:59;5.80;99.90
19999;DHT22;10160;50.926;4.374;2024-02-23T02:52:24;5.80;99.90
19999;DHT22;10160;50.926;4.374;2024-02-23T02:54:56;5.90;99.90
19999;DHT22;10160;50.926;4.374;2024-02-23T02:57:28;5.90;99.90
19999;DHT22;10160;50.926;4.374;2024-02-23T02:59:55;5.90;99.90
19999;DHT22;10160;50.926;4.374;2024-02-23T03:02:23;6.10;99.90
19999;DHT22;10160;50.926;4.374;2024-02-23T03:04:50;6.10;99.90
19999;DHT22;10160;50.926;4.374;2024-02-23T03:07:21;6.20;99.90
19999;DHT22;10160;50.926;4.374;2024-02-23T03:09:47;6.10;99.90
19999;DHT22;10160;50.926;4.374;2024-02-23T03:12:14;6.10;99.90
19999;DHT22;10160;50.926;4.374;2024-02-23T03:14:39;6.10;99.90
19999;DHT22;10160;50.926;4.374;2024-02-23T03:17:07;6.10;99.90
19999;DHT22;10160;50.926;4.374;2024-02-23T03:19:32;6.10;99.90
19999;DHT22;10160;50.926;4.374;2024-02-23T03:21:59;6.10;99.90
19999;DHT22;10160;50.926;4.374;2024-02-23T03:24:27;6.00;99.90
19999;DHT22;10160;50.926;4.374;2024-02-23T03:26:53;6.10;99.90
19999;DHT22;10160;50.926;4.374;2024-02-23T03:29:19;6.00;99.90
19999;DHT22;10160;50.926;4.374;2024-02-23T03:31:45;6.00;99.90
19999;DHT22;10160;50.926;4.374;2024-02-23T03:34:14;6.00;99.90
19999;DHT22;10160;50.926;4.374;2024-02-23T03:36:39;6.00;99.90
19999;DHT22;10160;50.926;4.374;2024-02-23T03:39:08;6.10;99.90
19999;DHT22;10160;50.926;4.374;2024-02-23T03:41:33;6.10;99.90
19999;DHT22;10160;50.926;4.374;2024-02-23T03:43:59;6.10;99.90
19999;DHT22;10160;50.926;4.374;2024-02-23T03:46:35;6.10;99.90
19999;DHT22;10160;50.926;4.374;2024-02-23T03:49:03;6.20;99.90
19999;DHT22;10160;50.926;4.374;2024-02-23T03:51:29;6.20;99.90
19999;DHT22;10160;50.926;4.374;2024-02-23T03:53:55;6.20;99.90
19999;DHT22;10160;50.926;4.374;2024-02-23T03:56:24;6.20;99.90
19999;DHT22;10160;50.926;4.374;2024-02-23T03:58:50;6.30;99.90
19999;DHT22;10160;50.926;4.374;2024-02-23T04:01:16;6.20;99.90
19999;DHT22;10160;50.926;4.374;2024-02-23T04:03:41;6.20;99.90
19999;DHT22;10160;50.926;4.374;2024-02-23T04:06:12;6.30;99.90
19999;DHT22;10160;50.926;4.374;2024-02-23T04:08:39;6.30;99.90
19999;DHT22;10160;50.926;4.374;2024-02-23T04:11:06;6.30;99.90
19999;DHT22;10160;50.926;4.374;2024-02-23T04:13:31;6.30;99.90
19999;DHT22;10160;50.926;4.374;2024-02-23T04:15:57;6.40;99.90
19999;DHT22;10160;50.926;4.374;2024-02-23T04:18:23;6.30;99.90
19999;DHT22;10160;50.926;4.374;2024-02-23T04:20:48;6.30;99.90
19999;DHT22;10160;50.926;4.374;2024-02-23T04:23:14;6.30;99.90
19999;DHT22;10160;50.926;4.374;2024-02-23T04:25:42;6.30;99.90
19999;DHT22;10160;50.926;4.374;2024-02-23T04:28:08;6.30;99.90
19999;DHT22;10160;50.926;4.374;2024-02-23T04:30:34;6.20;99.90
19999;DHT22;10160;50.926;4.374;2024-02-23T04:33:03;6.20;99.90
19999;DHT22;10160;50.926;4.374;2024-02-23T04:35:28;6.20;99.90
19999;DHT22;10160;50.926;4.374;2024-02-23T04:37:54;6.20;99.90
19999;DHT22;10160;50.926;4.374;2024-02-23T04:40:19;6.20;99.90
19999;DHT22;10160;50.926;4.374;2024-02-23T04:42:48;6.20;99.90
19999;DHT22;10160;50.926;4.374;2024-02-23T04:45:14;6.20;99.90
19999;DHT22;10160;50.926;4.374;2024-02-23T04:47:39;6.20;99.90
19999;DHT22;10160;50.926;4.374;2024-02-23T04:50:06;6.20;99.90
19999;DHT22;10160;50.926;4.374;2024-02-23T04:52:35;6.20;99.90
19999;DHT22;10160;50.926;4.374;2024-02-23T04:55:00;6.30;99.90
19999;DHT22;10160;50.926;4.374;2024-02-23T04:57:26;6.30;99.90
19999;DHT22;10160;50.926;4.374;2024-02-23T04:59:52;6.30;99.90
19999;DHT22;10160;50.926;4.374;2024-02-23T05:02:18;6.40;99.90
19999;DHT22;10160;50.926;4.374;2024-02-23T05:04:43;6.40;99.90
19999;DHT22;10160;50.926;4.374;2024-02-23T05:07:09;6.40;99.90
19999;DHT22;10160;50.926;4.374;2024-02-23T05:09:35;6.40;99.90
19999;DHT22;10160;50.926;4.374;2024-02-23T05:12:03;6.40;99.90
19999;DHT22;10160;50.926;4.374;2024-02-23T05:14:29;6.40;99.90
19999;DHT22;10160;50.926;4.374;2024-02-23T05:16:58;6.40;99.90
19999;DHT22;10160;50.926;4.374;2024-02-23T05:19:23;6.50;99.90
19999;DHT22;10160;50.926;4.374;2024-02-23T05:21:54;6.50;99.90
19999;DHT22;10160;50.926;4.374;2024-02-23T05:24:20;6.50;99.90
19999;DHT22;10160;50.926;4.374;2024-02-23T05:26:46;6.50;99.90
19999;DHT22;10160;50.926;4.374;2024-02-23T05:29:11;6.50;99.90
19999;DHT22;10160;50.926;4.374;2024-02-23T05:31:49;6.40;99.90
19999;DHT22;10160;50.926;4.374;2024-02-23T05:34:15;6.50;99.90
19999;DHT22;10160;50.926;4.374;2024-02-23T05:36:41;6.50;99.90
19999;DHT22;10160;50.926;4.374;2024-02-23T05:39:07;6.60;99.90
19999;DHT22;10160;50.926;4.374;2024-02-23T05:41:37;6.60;99.90
19999;DHT22;10160;50.926;4.374;2024-02-23T05:44:04;6.60;99.90
19999;DHT22;10160;50.926;4.374;2024-02-23T05:46:32;6.50;99.90
19999;DHT22;10160;50.926;4.374;2024-02-23T05:48:58;6.50;99.90
19999;DHT22;10160;50.926;4.374;2024-02-23T05:51:24;6.40;99.90
19999;DHT22;10160;50.926;4.374;2024-02-23T05:53:49;6.30;99.90
19999;DHT22;10160;50.926;4.374;2024-02-23T05:56:15;6.40;99.90
19999;DHT22;10160;50.926;4.374;2024-02-23T05:58:43;6.50;99.90
19999;DHT22;10160;50.926;4.374;2024-02-23T06:01:09;6.40;99.90
19999;DHT22;10160;50.926;4.374;2024-02-23T06:03:35;6.40;99.90
19999;DHT22;10160;50.926;4.374;2024-02-23T06:06:06;6.40;99.90
19999;DHT22;10160;50.926;4.374;2024-02-23T06:08:41;6.30;99.90
19999;DHT22;10160;50.926;4.374;2024-02-23T06:11:09;6.30;99.90
19999;DHT22;10160;50.926;4.374;2024-02-23T06:13:35;6.30;99.90
19999;DHT22;10160;50.926;4.374;2024-02-23T06:16:01;6.30;99.90
19999;DHT22;10160;50.926;4.374;2024-02-23T06:18:26;6.20;99.90
19999;DHT22;10160;50.926;4.374;2024-02-23T06:20:52;6.20;99.90
19999;DHT22;10160;50.926;4.374;2024-02-23T06:23:18;6.10;99.90
19999;DHT22;10160;50.926;4.374;2024-02-23T06:25:44;6.20;99.90
19999;DHT22;10160;50.926;4.374;2024-02-23T06:28:09;6.20;99.90
19999;DHT22;10160;50.926;4.374;2024-02-23T06:30:38;6.20;99.90
19999;DHT22;10160;50.926;4.374;2024-02-23T06:33:06;6.20;99.90
19999;DHT22;10160;50.926;4.374;2024-02-23T06:35:32;6.30;99.90
19999;DHT22;10160;50.926;4.374;2024-02-23T06:37:58;6.20;99.90
19999;DHT22;10160;50.926;4.374;2024-02-23T06:40:23;6.30;99.90
19999;DHT22;10160;50.926;4.374;2024-02-23T06:42:49;6.30;99.90
19999;DHT22;10160;50.926;4.374;2024-02-23T06:45:18;6.40;99.90
19999;DHT22;10160;50.926;4.374;2024-02-23T06:47:47;6.30;99.90
19999;DHT22;10160;50.926;4.374;2024-02-23T06:50:13;6.40;99.90
19999;DHT22;10160;50.926;4.374;2024-02-23T06:52:41;6.40;99.90
19999;DHT22;10160;50.926;4.374;2024-02-23T06:55:13;6.50;99.90
19999;DHT22;10160;50.926;4.374;2024-02-23T06:57:45;6.50;99.90
19999;DHT22;10160;50.926;4.374;2024-02-23T07:00:13;6.60;99.90
19999;DHT22;10160;50.926;4.374;2024-02-23T07:02:39;6.40;99.90
19999;DHT22;10160;50.926;4.374;2024-02-23T07:05:08;6.40;99.90
19999;DHT22;10160;50.926;4.374;2024-02-23T07:07:34;6.50;99.90
19999;DHT22;10160;50.926;4.374;2024-02-23T07:10:04;6.50;99.90
19999;DHT22;10160;50.926;4.374;2024-02-23T07:12:29;6.60;99.90
19999;DHT22;10160;50.926;4.374;2024-02-23T07:14:55;6.60;99.90
19999;DHT22;10160;50.926;4.374;2024-02-23T07:17:21;6.60;99.90
19999;DHT22;10160;50.926;4.374;2024-02-23T07:19:55;6.50;99.90
19999;DHT22;10160;50.926;4.374;2024-02-23T07:22:31;6.50;99.90
19999;DHT22;10160;50.926;4.374;2024-02-23T07:25:18;6.60;99.90
19999;DHT22;10160;50.926;4.374;2024-02-23T07:27:45;6.60;99.90
19999;DHT22;10160;50.926;4.374;2024-02-23T07:30:17;6.50;99.90
19999;DHT22;10160;50.926;4.374;2024-02-23T07:32:43;6.60;99.90
19999;DHT22;10160;50.926;4.374;2024-02-23T07:35:10;6.70;99.90
19999;DHT22;10160;50.926;4.374;2024-02-23T07:37:37;6.70;99.90
19999;DHT22;10160;50.926;4.374;2024-02-23T07:40:03;6.70;99.90
19999;DHT22;10160;50.926;4.374;2024-02-23T07:42:30;6.70;99.90
19999;DHT22;10160;50.926;4.374;2024-02-23T07:44:56;6.70;99.90
19999;DHT22;10160;50.926;4.374;2024-02-23T07:47:22;6.80;99.90
19999;DHT22;10160;50.926;4.374;2024-02-23T07:49:52;6.80;99.90
19999;DHT22;10160;50.926;4.374;2024-02-23T07:52:20;6.70;99.90
19999;DHT22;10160;50.926;4.374;2024-02-23T07:54:49;6.80;99.90
19999;DHT22;10160;50.926;4.374;2024-02-23T07:57:17;6.90;99.90
19999;DHT22;10160;50.926;4.374;2024-02-23T07:59:49;6.80;99.90
19999;DHT22;10160;50.926;4.374;2024-02-23T08:02:15;6.90;99.90
19999;DHT22;10160;50.926;4.374;2024-02-23T08:04:44;6.90;99.90
19999;DHT22;10160;50.926;4.374;2024-02-23T08:07:09;6.90;99.90
19999;DHT22;10160;50.926;4.374;2024-02-23T08:09:35;6.80;99.90
19999;DHT22;10160;50.926;4.374;2024-02-23T08:12:04;6.70;99.90
19999;DHT22;10160;50.926;4.374;2024-02-23T08:14:30;6.70;99.90
19999;DHT22;10160;50.926;4.374;2024-02-23T08:16:56;6.60;99.90
19999;DHT22;10160;50.926;4.374;2024-02-23T08:19:27;6.50;99.90
19999;DHT22;10160;50.926;4.374;2024-02-23T08:21:55;6.50;99.90
19999;DHT22;10160;50.926;4.374;2024-02-23T08:24:27;6.50;99.90
19999;DHT22;10160;50.926;4.374;2024-02-23T08:26:58;6.40;99.90
19999;DHT22;10160;50.926;4.374;2024-02-23T08:29:25;6.30;99.90
19999;DHT22;10160;50.926;4.374;2024-02-23T08:31:51;6.30;99.90
19999;DHT22;10160;50.926;4.374;2024-02-23T08:34:17;6.30;99.90
19999;DHT22;10160;50.926;4.374;2024-02-23T08:36:43;6.30;99.90
19999;DHT22;10160;50.926;4.374;2024-02-23T08:39:19;6.10;99.90
19999;DHT22;10160;50.926;4.374;2024-02-23T08:41:47;5.90;99.90
19999;DHT22;10160;50.926;4.374;2024-02-23T08:44:13;5.90;99.90
19999;DHT22;10160;50.926;4.374;2024-02-23T08:46:42;5.90;99.90
19999;DHT22;10160;50.926;4.374;2024-02-23T08:49:08;6.00;99.90
19999;DHT22;10160;50.926;4.374;2024-02-23T08:51:36;6.00;99.90
19999;DHT22;10160;50.926;4.374;2024-02-23T08:54:03;6.10;99.90
19999;DHT22;10160;50.926;4.374;2024-02-23T08:56:30;6.10;99.90
19999;DHT22;10160;50.926;4.374;2024-02-23T08:59:06;6.10;99.90
19999;DHT22;10160;50.926;4.374;2024-02-23T09:01:31;6.10;99.90
19999;DHT22;10160;50.926;4.374;2024-02-23T09:03:57;6.10;99.90
19999;DHT22;10160;50.926;4.374;2024-02-23T09:06:22;6.10;99.90
19999;DHT22;10160;50.926;4.374;2024-02-23T09:08:51;6.10;99.90
19999;DHT22;10160;50.926;4.374;2024-02-23T09:11:16;6.20;99.90
19999;DHT22;10160;50.926;4.374;2024-02-23T09:13:45;6.20;99.90
19999;DHT22;10160;50.926;4.374;2024-02-23T09:16:19;6.20;99.90
19999;DHT22;10160;50.926;4.374;2024-02-23T09:18:47;6.30;99.90
19999;DHT22;10160;50.926;4.374;2024-02-23T09:21:13;6.40;99.90
19999;DHT22;10160;50.926;4.374;2024-02-23T09:23:45;6.50;99.90
19999;DHT22;10160;50.926;4.374;2024-02-23T09:26:12;6.60;99.90
19999;DHT22;10160;50.926;4.374;2024-02-23T09:28:56;6.70;99.90
19999;DHT22;10160;50.926;4.374;2024-02-23T09:31:21;6.70;99.90
19999;DHT22;10160;50.926;4.374;2024-02-23T09:33:47;6.80;99.90
19999;DHT22;10160;50.926;4.374;2024-02-23T09:36:14;6.80;99.90
19999;DHT22;10160;50.926;4.374;2024-02-23T09:38:52;6.90;99.90
19999;DHT22;10160;50.926;4.374;2024-02-23T09:41:22;7.00;99.90
19999;DHT22;10160;50.926;4.374;2024-02-23T09:43:49;7.20;99.90
19999;DHT22;10160;50.926;4.374;2024-02-23T09:46:21;7.10;99.90
19999;DHT22;10160;50.926;4.374;2024-02-23T09:48:48;7.10;99.90
19999;DHT22;10160;50.926;4.374;2024-02-23T09:51:16;7.30;99.90
19999;DHT22;10160;50.926;4.374;2024-02-23T09:53:42;7.30;99.90
19999;DHT22;10160;50.926;4.374;2024-02-23T09:56:16;7.30;99.90
19999;DHT22;10160;50.926;4.374;2024-02-23T09:58:49;7.40;99.90
19999;DHT22;10160;50.926;4.374;2024-02-23T10:01:30;7.60;99.90
19999;DHT22;10160;50.926;4.374;2024-02-23T10:04:00;7.80;99.90
19999;DHT22;10160;50.926;4.374;2024-02-23T10:06:27;8.00;99.90
19999;DHT22;10160;50.926;4.374;2024-02-23T10:08:53;8.10;99.90
19999;DHT22;10160;50.926;4.374;2024-02-23T10:11:31;8.40;99.90
19999;DHT22;10160;50.926;4.374;2024-02-23T10:13:56;8.20;99.90
19999;DHT22;10160;50.926;4.374;2024-02-23T10:16:22;7.80;99.90
19999;DHT22;10160;50.926;4.374;2024-02-23T10:18:48;7.80;99.90
19999;DHT22;10160;50.926;4.374;2024-02-23T10:21:17;7.90;99.90
19999;DHT22;10160;50.926;4.374;2024-02-23T10:23:47;7.80;99.90
19999;DHT22;10160;50.926;4.374;2024-02-23T10:26:13;7.80;99.90
19999;DHT22;10160;50.926;4.374;2024-02-23T10:28:45;7.90;99.90
19999;DHT22;10160;50.926;4.374;2024-02-23T10:31:11;8.00;99.90
19999;DHT22;10160;50.926;4.374;2024-02-23T10:33:37;8.10;99.90
19999;DHT22;10160;50.926;4.374;2024-02-23T10:36:07;8.10;99.90
19999;DHT22;10160;50.926;4.374;2024-02-23T10:38:38;8.10;99.90
19999;DHT22;10160;50.926;4.374;2024-02-23T10:41:15;8.20;99.90
19999;DHT22;10160;50.926;4.374;2024-02-23T10:43:47;8.10;99.90
19999;DHT22;10160;50.926;4.374;2024-02-23T10:46:14;7.90;99.90
19999;DHT22;10160;50.926;4.374;2024-02-23T10:48:48;8.00;99.90
19999;DHT22;10160;50.926;4.374;2024-02-23T10:51:21;8.00;99.90
19999;DHT22;10160;50.926;4.374;2024-02-23T10:53:49;8.00;99.90
19999;DHT22;10160;50.926;4.374;2024-02-23T10:56:21;8.10;99.90
19999;DHT22;10160;50.926;4.374;2024-02-23T10:58:51;8.20;99.90
19999;DHT22;10160;50.926;4.374;2024-02-23T11:01:18;8.30;99.90
19999;DHT22;10160;50.926;4.374;2024-02-23T11:03:45;8.40;99.90
19999;DHT22;10160;50.926;4.374;2024-02-23T11:06:15;8.50;99.90
19999;DHT22;10160;50.926;4.374;2024-02-23T11:08:49;8.40;99.90
19999;DHT22;10160;50.926;4.374;2024-02-23T11:11:16;8.50;99.90
19999;DHT22;10160;50.926;4.374;2024-02-23T11:13:44;8.60;99.90
19999;DHT22;10160;50.926;4.374;2024-02-23T11:16:21;8.60;99.90
19999;DHT22;10160;50.926;4.374;2024-02-23T11:18:46;8.60;99.90
19999;DHT22;10160;50.926;4.374;2024-02-23T11:21:20;8.50;99.90
19999;DHT22;10160;50.926;4.374;2024-02-23T11:23:48;8.50;99.90
19999;DHT22;10160;50.926;4.374;2024-02-23T11:26:14;8.60;99.90
19999;DHT22;10160;50.926;4.374;2024-02-23T11:28:46;8.60;99.90
19999;DHT22;10160;50.926;4.374;2024-02-23T11:31:19;8.60;99.90
19999;DHT22;10160;50.926;4.374;2024-02-23T11:33:55;8.60;99.90
19999;DHT22;10160;50.926;4.374;2024-02-23T11:36:29;8.60;99.90
19999;DHT22;10160;50.926;4.374;2024-02-23T11:38:57;8.50;99.90
19999;DHT22;10160;50.926;4.374;2024-02-23T11:41:27;8.40;99.90
19999;DHT22;10160;50.926;4.374;2024-02-23T11:43:57;8.40;99.90
19999;DHT22;10160;50.926;4.374;2024-02-23T11:46:28;8.40;99.90
19999;DHT22;10160;50.926;4.374;2024-02-23T11:48:54;8.30;99.90
19999;DHT22;10160;50.926;4.374;2024-02-23T11:51:21;8.20;99.90
19999;DHT22;10160;50.926;4.374;2024-02-23T11:53:47;8.20;99.90
19999;DHT22;10160;50.926;4.374;2024-02-23T11:56:13;8.30;99.90
19999;DHT22;10160;50.926;4.374;2024-02-23T11:58:40;8.30;99.90
19999;DHT22;10160;50.926;4.374;2024-02-23T12:01:06;8.20;99.90
19999;DHT22;10160;50.926;4.374;2024-02-23T12:03:32;8.30;99.90
19999;DHT22;10160;50.926;4.374;2024-02-23T12:06:01;8.40;99.90
19999;DHT22;10160;50.926;4.374;2024-02-23T12:08:30;8.40;99.90
19999;DHT22;10160;50.926;4.374;2024-02-23T12:11:12;8.40;99.90
19999;DHT22;10160;50.926;4.374;2024-02-23T12:13:39;8.30;99.90
19999;DHT22;10160;50.926;4.374;2024-02-23T12:16:07;8.30;99.90
19999;DHT22;10160;50.926;4.374;2024-02-23T12:18:33;8.40;99.90
19999;DHT22;10160;50.926;4.374;2024-02-23T12:21:05;8.50;99.90
19999;DHT22;10160;50.926;4.374;2024-02-23T12:26:04;8.60;99.90
19999;DHT22;10160;50.926;4.374;2024-02-23T12:28:30;8.50;99.90
19999;DHT22;10160;50.926;4.374;2024-02-23T12:31:00;8.70;99.90
19999;DHT22;10160;50.926;4.374;2024-02-23T12:33:31;8.70;99.90
19999;DHT22;10160;50.926;4.374;2024-02-23T12:36:04;8.70;99.90
19999;DHT22;10160;50.926;4.374;2024-02-23T12:38:32;8.80;99.90
19999;DHT22;10160;50.926;4.374;2024-02-23T12:41:02;8.90;99.90
19999;DHT22;10160;50.926;4.374;2024-02-23T12:43:28;8.70;99.90
19999;DHT22;10160;50.926;4.374;2024-02-23T12:46:01;8.70;99.90
19999;DHT22;10160;50.926;4.374;2024-02-23T12:48:29;8.90;99.90
19999;DHT22;10160;50.926;4.374;2024-02-23T12:50:54;9.10;99.90
19999;DHT22;10160;50.926;4.374;2024-02-23T12:53:39;9.10;99.90
19999;DHT22;10160;50.926;4.374;2024-02-23T12:56:10;9.10;99.90
19999;DHT22;10160;50.926;4.374;2024-02-23T12:58:37;9.10;99.90
19999;DHT22;10160;50.926;4.374;2024-02-23T13:01:07;9.10;99.90
19999;DHT22;10160;50.926;4.374;2024-02-23T13:03:37;9.20;99.90
19999;DHT22;10160;50.926;4.374;2024-02-23T13:06:06;9.10;99.90
19999;DHT22;10160;50.926;4.374;2024-02-23T13:08:33;9.10;99.90
19999;DHT22;10160;50.926;4.374;2024-02-23T13:10:59;9.10;99.90
19999;DHT22;10160;50.926;4.374;2024-02-23T13:13:28;9.10;99.90
19999;DHT22;10160;50.926;4.374;2024-02-23T13:15:54;9.10;99.90
19999;DHT22;10160;50.926;4.374;2024-02-23T13:18:20;9.10;99.90
19999;DHT22;10160;50.926;4.374;2024-02-23T13:20:45;9.20;99.90
19999;DHT22;10160;50.926;4.374;2024-02-23T13:23:12;9.30;99.90
19999;DHT22;10160;50.926;4.374;2024-02-23T13:25:41;9.40;99.90
19999;DHT22;10160;50.926;4.374;2024-02-23T13:28:11;9.30;99.90
19999;DHT22;10160;50.926;4.374;2024-02-23T13:30:46;9.40;99.90
19999;DHT22;10160;50.926;4.374;2024-02-23T13:33:12;9.30;99.90
19999;DHT22;10160;50.926;4.374;2024-02-23T13:35:37;9.20;99.90
19999;DHT22;10160;50.926;4.374;2024-02-23T13:38:04;9.40;99.90
19999;DHT22;10160;50.926;4.374;2024-02-23T13:40:30;9.50;99.90
19999;DHT22;10160;50.926;4.374;2024-02-23T13:43:03;9.50;99.90
19999;DHT22;10160;50.926;4.374;2024-02-23T13:45:28;9.40;99.90
19999;DHT22;10160;50.926;4.374;2024-02-23T13:48:02;9.40;99.90
19999;DHT22;10160;50.926;4.374;2024-02-23T13:50:29;9.50;99.90
19999;DHT22;10160;50.926;4.374;2024-02-23T13:52:57;9.40;99.90
19999;DHT22;10160;50.926;4.374;2024-02-23T13:55:23;9.40;99.90
19999;DHT22;10160;50.926;4.374;2024-02-23T13:57:49;9.40;99.90
19999;DHT22;10160;50.926;4.374;2024-02-23T14:00:16;9.50;99.90
19999;DHT22;10160;50.926;4.374;2024-02-23T14:02:46;9.60;99.90
19999;DHT22;10160;50.926;4.374;2024-02-23T14:05:12;9.20;99.90
19999;DHT22;10160;50.926;4.374;2024-02-23T14:07:38;9.20;99.90
19999;DHT22;10160;50.926;4.374;2024-02-23T14:10:05;9.20;99.90
19999;DHT22;10160;50.926;4.374;2024-02-23T14:12:33;9.20;99.90
19999;DHT22;10160;50.926;4.374;2024-02-23T14:15:00;9.30;99.90
19999;DHT22;10160;50.926;4.374;2024-02-23T14:17:25;9.40;99.90
19999;DHT22;10160;50.926;4.374;2024-02-23T14:19:51;9.30;99.90
19999;DHT22;10160;50.926;4.374;2024-02-23T14:22:17;9.30;99.90
19999;DHT22;10160;50.926;4.374;2024-02-23T14:24:43;9.30;99.90
19999;DHT22;10160;50.926;4.374;2024-02-23T14:27:08;9.20;99.90
19999;DHT22;10160;50.926;4.374;2024-02-23T14:29:34;9.20;99.90
19999;DHT22;10160;50.926;4.374;2024-02-23T14:32:03;9.40;99.90
19999;DHT22;10160;50.926;4.374;2024-02-23T14:34:30;10.30;99.90
19999;DHT22;10160;50.926;4.374;2024-02-23T14:36:58;10.80;99.90
19999;DHT22;10160;50.926;4.374;2024-02-23T14:39:24;10.30;99.90
19999;DHT22;10160;50.926;4.374;2024-02-23T14:41:52;10.20;99.90
19999;DHT22;10160;50.926;4.374;2024-02-23T14:44:18;10.10;99.90
19999;DHT22;10160;50.926;4.374;2024-02-23T14:46:44;9.90;99.90
19999;DHT22;10160;50.926;4.374;2024-02-23T14:49:12;9.80;99.90
19999;DHT22;10160;50.926;4.374;2024-02-23T14:51:37;9.60;99.90
19999;DHT22;10160;50.926;4.374;2024-02-23T14:54:03;9.40;99.90
19999;DHT22;10160;50.926;4.374;2024-02-23T14:56:29;9.50;99.90
19999;DHT22;10160;50.926;4.374;2024-02-23T14:58:55;9.60;99.90
19999;DHT22;10160;50.926;4.374;2024-02-23T15:01:20;9.70;99.90
19999;DHT22;10160;50.926;4.374;2024-02-23T15:03:46;9.90;99.90
19999;DHT22;10160;50.926;4.374;2024-02-23T15:06:12;10.50;99.90
19999;DHT22;10160;50.926;4.374;2024-02-23T15:08:38;10.50;99.90
19999;DHT22;10160;50.926;4.374;2024-02-23T15:11:04;10.80;99.90
19999;DHT22;10160;50.926;4.374;2024-02-23T15:13:31;10.80;99.90
19999;DHT22;10160;50.926;4.374;2024-02-23T15:15:57;10.70;99.90
19999;DHT22;10160;50.926;4.374;2024-02-23T15:18:22;10.30;99.90
19999;DHT22;10160;50.926;4.374;2024-02-23T15:20:48;10.00;99.90
19999;DHT22;10160;50.926;4.374;2024-02-23T15:23:14;9.90;99.90
19999;DHT22;10160;50.926;4.374;2024-02-23T15:25:39;9.80;99.90
19999;DHT22;10160;50.926;4.374;2024-02-23T15:28:05;9.70;99.90
19999;DHT22;10160;50.926;4.374;2024-02-23T15:30:31;9.60;99.90
19999;DHT22;10160;50.926;4.374;2024-02-23T15:32:58;9.70;99.90
19999;DHT22;10160;50.926;4.374;2024-02-23T15:35:24;9.70;99.90
19999;DHT22;10160;50.926;4.374;2024-02-23T15:37:51;9.80;99.90
19999;DHT22;10160;50.926;4.374;2024-02-23T15:40:17;9.90;99.90
19999;DHT22;10160;50.926;4.374;2024-02-23T15:42:43;9.70;99.90
19999;DHT22;10160;50.926;4.374;2024-02-23T15:45:09;9.70;99.90
19999;DHT22;10160;50.926;4.374;2024-02-23T15:47:34;9.70;99.90
19999;DHT22;10160;50.926;4.374;2024-02-23T15:50:00;9.80;99.90
19999;DHT22;10160;50.926;4.374;2024-02-23T15:52:29;9.70;99.90